createdAt,value
2023-05-08T00:01:31.124Z,4.66
2023-05-08T00:03:58.681Z,4.68
2023-05-08T00:06:27.674Z,4.69
2023-05-08T00:08:57.632Z,4.66
2023-05-08T00:11:24.499Z,4.64
2023-05-08T00:13:51.254Z,4.63
2023-05-08T00:16:18.242Z,4.64
2023-05-08T00:18:45.112Z,4.71
2023-05-08T00:21:11.998Z,4.74
2023-05-08T00:23:38.786Z,4.74
2023-05-08T00:26:05.548Z,4.74
2023-05-08T00:28:32.331Z,4.75
2023-05-08T00:31:02.353Z,4.75
2023-05-08T00:33:29.312Z,4.74
2023-05-08T00:36:01.588Z,4.71
2023-05-08T00:38:31.634Z,4.67
2023-05-08T00:40:58.344Z,4.64
2023-05-08T00:43:28.532Z,4.65
2023-05-08T00:45:56.494Z,4.62
2023-05-08T00:48:24.082Z,4.60
2023-05-08T00:50:52.138Z,4.61
2023-05-08T00:53:19.696Z,4.62
2023-05-08T00:55:46.553Z,4.66
2023-05-08T00:58:13.752Z,4.65
2023-05-08T01:00:41.841Z,4.67
2023-05-08T01:03:09.748Z,4.68
2023-05-08T01:05:36.803Z,4.69
2023-05-08T01:08:04.004Z,4.66
2023-05-08T01:10:38.161Z,4.61
2023-05-08T01:13:11.738Z,4.59
2023-05-08T01:15:43.198Z,4.58
2023-05-08T01:18:17.622Z,4.56
2023-05-08T01:21:01.424Z,4.58
2023-05-08T01:24:06.493Z,4.62
2023-05-08T01:26:47.971Z,4.67
2023-05-08T01:29:27.719Z,4.68
2023-05-08T01:32:19.767Z,4.67
2023-05-08T01:35:00.738Z,4.67
2023-05-08T01:37:37.497Z,4.69
2023-05-08T01:40:19.905Z,4.71
2023-05-08T01:42:48.546Z,4.69
2023-05-08T01:45:26.708Z,4.64
2023-05-08T01:48:01.900Z,4.58
2023-05-08T01:50:35.607Z,4.54
2023-05-08T01:53:07.643Z,4.55
2023-05-08T01:55:36.551Z,4.57
2023-05-08T01:58:07.742Z,4.59
2023-05-08T02:00:34.575Z,4.61
2023-05-08T02:03:01.756Z,4.65
2023-05-08T02:05:28.595Z,4.72
2023-05-08T02:07:55.565Z,4.75
2023-05-08T02:10:24.935Z,4.78
2023-05-08T02:12:51.840Z,4.77
2023-05-08T02:15:18.652Z,4.75
2023-05-08T02:17:46.948Z,4.76
2023-05-08T02:20:15.267Z,4.77
2023-05-08T02:22:46.498Z,4.79
2023-05-08T02:25:14.749Z,4.80
2023-05-08T02:27:48.435Z,4.80
2023-05-08T02:30:16.531Z,4.82
2023-05-08T02:32:47.172Z,4.81
2023-05-08T02:35:16.253Z,4.73
2023-05-08T02:37:45.409Z,4.70
2023-05-08T02:40:13.266Z,4.69
2023-05-08T02:42:40.252Z,4.68
2023-05-08T02:45:08.012Z,4.67
2023-05-08T02:47:48.632Z,4.65
2023-05-08T02:50:21.794Z,4.67
2023-05-08T02:52:49.932Z,4.67
2023-05-08T02:55:38.417Z,4.68
2023-05-08T02:58:31.809Z,4.72
2023-05-08T03:01:00.920Z,4.71
2023-05-08T03:03:45.491Z,4.68
2023-05-08T03:06:14.070Z,4.65
2023-05-08T03:08:40.991Z,4.62
2023-05-08T03:11:16.265Z,4.60
2023-05-08T03:13:44.934Z,4.58
2023-05-08T03:16:17.545Z,4.57
2023-05-08T03:18:53.497Z,4.60
2023-05-08T03:21:21.318Z,4.59
2023-05-08T03:23:48.548Z,4.59
2023-05-08T03:26:22.415Z,4.58
2023-05-08T03:28:50.596Z,4.57
2023-05-08T03:31:21.759Z,4.53
2023-05-08T03:33:50.655Z,4.52
2023-05-08T03:36:17.454Z,4.53
2023-05-08T03:38:44.232Z,4.53
2023-05-08T03:41:11.916Z,4.53
2023-05-08T03:43:38.837Z,4.54
2023-05-08T03:46:07.209Z,4.53
2023-05-08T03:48:34.811Z,4.51
2023-05-08T03:51:03.319Z,4.52
2023-05-08T03:53:31.288Z,4.52
2023-05-08T03:55:59.206Z,4.53
2023-05-08T03:58:55.453Z,4.52
2023-05-08T04:01:40.833Z,4.49
2023-05-08T04:04:30.704Z,4.46
2023-05-08T04:07:26.999Z,4.48
2023-05-08T04:10:12.631Z,4.49
2023-05-08T04:12:45.701Z,4.53
2023-05-08T04:15:23.490Z,4.56
2023-05-08T04:17:54.405Z,4.56
2023-05-08T04:20:22.309Z,4.58
2023-05-08T04:22:50.484Z,4.60
2023-05-08T04:25:18.184Z,4.65
2023-05-08T04:27:45.485Z,4.69
2023-05-08T04:30:12.677Z,4.69
2023-05-08T04:33:44.875Z,4.72
2023-05-08T04:36:13.706Z,4.72
2023-05-08T04:38:41.815Z,4.77
2023-05-08T04:41:08.926Z,4.79
2023-05-08T04:43:36.135Z,4.82
2023-05-08T04:46:04.032Z,4.89
2023-05-08T04:48:33.408Z,4.95
2023-05-08T04:51:00.669Z,4.99
2023-05-08T04:53:28.249Z,5.00
2023-05-08T04:55:55.142Z,5.01
2023-05-08T04:58:22.624Z,5.01
2023-05-08T05:00:49.464Z,5.01
2023-05-08T05:03:16.963Z,5.01
2023-05-08T05:05:44.143Z,4.98
2023-05-08T05:08:11.276Z,4.99
2023-05-08T05:10:39.410Z,5.00
2023-05-08T05:13:06.339Z,5.02
2023-05-08T05:15:33.280Z,5.05
2023-05-08T05:18:00.372Z,5.04
2023-05-08T05:20:27.451Z,5.03
2023-05-08T05:22:54.225Z,5.04
2023-05-08T05:25:20.978Z,5.06
2023-05-08T05:27:47.917Z,5.09
2023-05-08T05:30:15.237Z,5.10
2023-05-08T05:32:42.566Z,5.12
2023-05-08T05:35:10.609Z,5.16
2023-05-08T05:37:38.052Z,5.17
2023-05-08T05:40:06.336Z,5.23
2023-05-08T05:42:33.825Z,5.28
2023-05-08T05:45:02.165Z,5.33
2023-05-08T05:47:29.500Z,5.34
2023-05-08T05:49:57.492Z,5.39
2023-05-08T05:52:24.224Z,5.44
2023-05-08T05:54:52.105Z,5.50
2023-05-08T05:57:19.249Z,5.55
2023-05-08T05:59:46.345Z,5.59
2023-05-08T06:02:19.076Z,5.61
2023-05-08T06:04:46.367Z,5.63
2023-05-08T06:07:13.414Z,5.60
2023-05-08T06:09:40.362Z,5.57
2023-05-08T06:12:10.360Z,5.59
2023-05-08T06:14:37.070Z,5.61
2023-05-08T06:17:03.839Z,5.66
2023-05-08T06:19:31.326Z,5.68
2023-05-08T06:21:58.224Z,5.70
2023-05-08T06:24:24.974Z,5.73
2023-05-08T06:26:51.992Z,5.74
2023-05-08T06:29:18.767Z,5.78
2023-05-08T06:31:45.978Z,5.83
2023-05-08T06:34:13.198Z,5.87
2023-05-08T06:36:40.042Z,5.89
2023-05-08T06:39:07.627Z,5.90
2023-05-08T06:41:34.484Z,5.90
2023-05-08T06:44:01.390Z,5.90
2023-05-08T06:46:30.041Z,5.91
2023-05-08T06:48:57.149Z,5.90
2023-05-08T06:51:24.023Z,5.92
2023-05-08T06:53:50.786Z,5.96
2023-05-08T06:56:17.572Z,6.01
2023-05-08T06:58:50.530Z,6.07
2023-05-08T07:01:24.202Z,6.15
2023-05-08T07:03:51.312Z,6.22
2023-05-08T07:06:18.166Z,6.30
2023-05-08T07:08:44.946Z,6.34
2023-05-08T07:11:11.942Z,6.40
2023-05-08T07:13:38.917Z,6.44
2023-05-08T07:16:11.007Z,6.47
2023-05-08T07:18:38.116Z,6.47
2023-05-08T07:21:05.591Z,6.51
2023-05-08T07:23:32.399Z,6.51
2023-05-08T07:25:59.515Z,6.52
2023-05-08T07:28:26.417Z,6.60
2023-05-08T07:30:53.314Z,6.65
2023-05-08T07:33:20.093Z,6.71
2023-05-08T07:35:46.866Z,6.78
2023-05-08T07:38:13.648Z,6.82
2023-05-08T07:40:40.601Z,6.88
2023-05-08T07:43:07.346Z,6.96
2023-05-08T07:45:34.991Z,7.02
2023-05-08T07:48:01.798Z,7.06
2023-05-08T07:50:28.603Z,7.09
2023-05-08T07:52:55.445Z,7.13
2023-05-08T07:55:22.287Z,7.16
2023-05-08T07:57:49.048Z,7.16
2023-05-08T08:00:16.330Z,7.19
2023-05-08T08:02:43.948Z,7.23
2023-05-08T08:05:11.367Z,7.25
2023-05-08T08:07:41.532Z,7.27
2023-05-08T08:10:08.897Z,7.30
2023-05-08T08:12:35.966Z,7.32
2023-05-08T08:15:02.936Z,7.37
2023-05-08T08:17:29.731Z,7.44
2023-05-08T08:19:57.220Z,7.50
2023-05-08T08:22:24.960Z,7.57
2023-05-08T08:24:54.710Z,7.65
2023-05-08T08:27:22.266Z,7.73
2023-05-08T08:29:49.193Z,7.79
2023-05-08T08:32:16.226Z,7.80
2023-05-08T08:34:43.104Z,7.83
2023-05-08T08:37:10.140Z,7.91
2023-05-08T08:39:36.943Z,7.94
2023-05-08T08:42:03.837Z,7.94
2023-05-08T08:44:30.720Z,7.96
2023-05-08T08:46:58.615Z,8.00
2023-05-08T08:49:34.183Z,8.02
2023-05-08T08:52:10.991Z,8.03
2023-05-08T08:54:38.034Z,7.98
2023-05-08T08:57:09.264Z,7.95
2023-05-08T08:59:40.654Z,7.95
2023-05-08T09:02:11.690Z,7.96
2023-05-08T09:04:38.952Z,7.97
2023-05-08T09:07:05.806Z,8.03
2023-05-08T09:09:36.068Z,8.07
2023-05-08T09:12:02.929Z,8.09
2023-05-08T09:14:29.819Z,8.13
2023-05-08T09:16:56.704Z,8.17
2023-05-08T09:19:26.254Z,8.18
2023-05-08T09:21:55.245Z,8.22
2023-05-08T09:24:23.131Z,8.30
2023-05-08T09:26:50.143Z,8.35
2023-05-08T09:29:18.279Z,8.38
2023-05-08T09:31:46.616Z,8.38
2023-05-08T09:34:23.991Z,8.37
2023-05-08T09:36:51.040Z,8.34
2023-05-08T09:39:22.439Z,8.31
2023-05-08T09:41:59.119Z,8.27
2023-05-08T09:44:26.081Z,8.26
2023-05-08T09:46:53.930Z,8.30
2023-05-08T09:49:20.819Z,8.34
2023-05-08T09:51:54.235Z,8.36
2023-05-08T09:54:21.202Z,8.34
2023-05-08T09:56:48.014Z,8.30
2023-05-08T09:59:28.496Z,8.26
2023-05-08T10:01:56.165Z,8.23
2023-05-08T10:04:33.841Z,8.21
2023-05-08T10:07:01.041Z,8.18
2023-05-08T10:09:32.960Z,8.15
2023-05-08T10:12:09.693Z,8.14
2023-05-08T10:14:36.833Z,8.14
2023-05-08T10:17:04.136Z,8.20
2023-05-08T10:19:31.542Z,8.22
2023-05-08T10:21:58.430Z,8.21
2023-05-08T10:24:33.417Z,8.22
2023-05-08T10:27:28.103Z,8.25
2023-05-08T10:29:56.186Z,8.29
2023-05-08T10:32:23.756Z,8.32
2023-05-08T10:34:53.911Z,8.35
2023-05-08T10:37:22.389Z,8.36
2023-05-08T10:39:49.180Z,8.39
2023-05-08T10:42:16.005Z,8.38
2023-05-08T10:44:42.834Z,8.41
2023-05-08T10:47:31.295Z,8.42
2023-05-08T10:50:08.820Z,8.43
2023-05-08T10:52:45.027Z,8.43
2023-05-08T10:55:31.149Z,8.40
2023-05-08T10:58:11.252Z,8.33
2023-05-08T11:00:53.409Z,8.34
2023-05-08T11:03:31.497Z,8.42
2023-05-08T11:06:00.951Z,8.47
2023-05-08T11:08:28.762Z,8.53
2023-05-08T11:10:58.841Z,8.64
2023-05-08T11:13:36.410Z,8.75
2023-05-08T11:16:03.813Z,8.85
2023-05-08T11:18:45.778Z,9.00
2023-05-08T11:21:16.621Z,9.17
2023-05-08T11:23:43.719Z,9.32
2023-05-08T11:26:14.291Z,9.45
2023-05-08T11:28:58.492Z,9.56
2023-05-08T11:31:25.429Z,9.63
2023-05-08T11:33:52.261Z,9.64
2023-05-08T11:36:22.853Z,9.68
2023-05-08T11:39:19.191Z,9.75
2023-05-08T11:41:48.114Z,9.88
2023-05-08T11:44:20.583Z,9.95
2023-05-08T11:46:51.757Z,9.99
2023-05-08T11:49:23.860Z,9.92
2023-05-08T11:51:58.063Z,9.84
2023-05-08T11:54:25.540Z,9.82
2023-05-08T11:56:54.925Z,9.82
2023-05-08T11:59:22.196Z,9.71
2023-05-08T12:02:06.923Z,9.56
2023-05-08T12:04:46.767Z,9.49
2023-05-08T12:07:13.950Z,9.44
2023-05-08T12:09:40.781Z,9.46
2023-05-08T12:12:07.760Z,9.51
2023-05-08T12:14:34.640Z,9.58
2023-05-08T12:17:02.749Z,9.66
2023-05-08T12:19:29.683Z,9.77
2023-05-08T12:21:57.040Z,9.88
2023-05-08T12:24:24.415Z,9.96
2023-05-08T12:26:54.709Z,10.01
2023-05-08T12:29:21.456Z,10.00
2023-05-08T12:31:48.505Z,9.96
2023-05-08T12:34:15.694Z,9.94
2023-05-08T12:36:42.457Z,10.03
2023-05-08T12:39:13.108Z,10.13
2023-05-08T12:41:50.026Z,10.28
2023-05-08T12:44:22.370Z,10.46
2023-05-08T12:46:53.287Z,10.65
2023-05-08T12:49:25.305Z,10.86
2023-05-08T12:51:53.077Z,11.02
2023-05-08T12:54:20.046Z,11.19
2023-05-08T12:56:47.264Z,11.31
2023-05-08T12:59:14.415Z,11.43
2023-05-08T13:01:41.287Z,11.50
2023-05-08T13:04:08.404Z,11.43
2023-05-08T13:06:35.764Z,11.39
2023-05-08T13:09:02.930Z,11.37
2023-05-08T13:11:34.391Z,11.32
2023-05-08T13:14:01.387Z,11.25
2023-05-08T13:16:28.254Z,11.25
2023-05-08T13:18:55.171Z,11.33
2023-05-08T13:21:21.962Z,11.37
2023-05-08T13:23:48.915Z,11.36
2023-05-08T13:26:15.726Z,11.24
2023-05-08T13:28:42.529Z,11.16
2023-05-08T13:31:09.413Z,11.16
2023-05-08T13:33:38.462Z,11.11
2023-05-08T13:36:05.417Z,11.07
2023-05-08T13:38:32.893Z,11.06
2023-05-08T13:40:59.756Z,11.10
2023-05-08T13:43:26.595Z,11.16
2023-05-08T13:45:54.207Z,11.18
2023-05-08T13:48:21.418Z,11.14
2023-05-08T13:50:48.171Z,11.09
2023-05-08T13:53:14.979Z,11.11
2023-05-08T13:55:42.363Z,11.17
2023-05-08T13:58:09.328Z,11.29
2023-05-08T14:00:36.331Z,11.36
2023-05-08T14:03:03.157Z,11.42
2023-05-08T14:05:30.039Z,11.49
2023-05-08T14:07:56.879Z,11.51
2023-05-08T14:10:23.631Z,11.54
2023-05-08T14:12:50.402Z,11.74
2023-05-08T14:15:17.262Z,12.32
2023-05-08T14:17:44.069Z,13.33
2023-05-08T14:20:12.499Z,14.37
2023-05-08T14:22:39.723Z,15.13
2023-05-08T14:25:07.577Z,15.47
2023-05-08T14:27:34.306Z,15.46
2023-05-08T14:30:01.492Z,15.25
2023-05-08T14:32:28.450Z,14.92
2023-05-08T14:34:55.544Z,14.63
2023-05-08T14:37:22.275Z,14.30
2023-05-08T14:39:49.348Z,14.02
2023-05-08T14:42:23.029Z,13.83
2023-05-08T14:44:51.348Z,13.87
2023-05-08T14:47:18.319Z,13.99
2023-05-08T14:49:45.210Z,14.19
2023-05-08T14:52:12.505Z,14.66
2023-05-08T14:54:39.590Z,15.15
2023-05-08T14:57:06.852Z,15.36
2023-05-08T14:59:33.888Z,15.33
2023-05-08T15:02:00.930Z,15.20
2023-05-08T15:04:27.939Z,14.95
2023-05-08T15:06:54.698Z,14.65
2023-05-08T15:09:21.565Z,14.37
2023-05-08T15:11:48.768Z,13.99
2023-05-08T15:14:15.580Z,13.54
2023-05-08T15:16:42.435Z,13.11
2023-05-08T15:19:09.598Z,12.75
2023-05-08T15:21:36.713Z,12.47
2023-05-08T15:24:03.704Z,12.33
2023-05-08T15:26:30.832Z,12.24
2023-05-08T15:28:57.654Z,12.17
2023-05-08T15:31:24.658Z,12.11
2023-05-08T15:33:51.870Z,12.04
2023-05-08T15:36:18.723Z,11.99
2023-05-08T15:38:45.525Z,12.13
2023-05-08T15:41:15.074Z,12.38
2023-05-08T15:43:43.191Z,12.60
2023-05-08T15:46:10.374Z,12.71
2023-05-08T15:48:37.320Z,12.76
2023-05-08T15:51:04.308Z,12.86
2023-05-08T15:53:31.223Z,12.95
2023-05-08T15:55:58.042Z,13.06
2023-05-08T15:58:25.039Z,13.17
2023-05-08T16:00:52.296Z,13.32
2023-05-08T16:03:19.540Z,13.71
2023-05-08T16:05:46.435Z,14.44
2023-05-08T16:08:13.937Z,15.42
2023-05-08T16:10:41.416Z,16.46
2023-05-08T16:13:08.430Z,17.34
2023-05-08T16:15:35.308Z,17.90
2023-05-08T16:18:03.083Z,18.41
2023-05-08T16:20:30.571Z,18.81
2023-05-08T16:22:58.668Z,18.97
2023-05-08T16:25:25.844Z,18.91
2023-05-08T16:27:52.709Z,18.75
2023-05-08T16:30:19.747Z,18.48
2023-05-08T16:32:46.872Z,18.11
2023-05-08T16:35:14.864Z,17.73
2023-05-08T16:37:42.156Z,17.36
2023-05-08T16:40:09.498Z,17.01
2023-05-08T16:42:37.167Z,16.64
2023-05-08T16:45:08.150Z,16.23
2023-05-08T16:50:39.175Z,15.52
2023-05-08T16:53:06.588Z,15.18
2023-05-08T16:55:33.334Z,14.86
2023-05-08T16:58:00.352Z,14.58
2023-05-08T17:00:27.488Z,14.33
2023-05-08T17:02:54.648Z,14.06
2023-05-08T17:05:21.872Z,13.74
2023-05-08T17:07:49.188Z,13.46
2023-05-08T17:10:16.175Z,13.22
2023-05-08T17:12:42.943Z,12.97
2023-05-08T17:15:10.084Z,12.78
2023-05-08T17:17:36.933Z,12.61
2023-05-08T17:20:04.683Z,12.46
2023-05-08T17:22:31.460Z,12.34
2023-05-08T17:24:58.385Z,12.23
2023-05-08T17:27:25.254Z,12.10
2023-05-08T17:29:52.111Z,11.92
2023-05-08T17:32:18.914Z,11.72
2023-05-08T17:34:45.900Z,11.56
2023-05-08T17:37:12.712Z,11.44
2023-05-08T17:39:39.527Z,11.30
2023-05-08T17:42:06.732Z,11.18
2023-05-08T17:44:33.698Z,11.08
2023-05-08T17:47:00.697Z,11.00
2023-05-08T17:49:27.722Z,10.95
2023-05-08T17:51:54.527Z,10.88
2023-05-08T17:54:21.421Z,10.80
2023-05-08T17:56:48.748Z,10.73
2023-05-08T17:59:15.557Z,10.67
2023-05-08T18:01:42.368Z,10.61
2023-05-08T18:04:09.361Z,10.55
2023-05-08T18:06:36.452Z,10.51
2023-05-08T18:09:03.308Z,10.46
2023-05-08T18:11:30.131Z,10.40
2023-05-08T18:13:57.014Z,10.33
2023-05-08T18:16:24.111Z,10.28
2023-05-08T18:18:51.971Z,10.21
2023-05-08T18:21:19.019Z,10.15
2023-05-08T18:23:45.984Z,10.10
2023-05-08T18:26:14.836Z,10.03
2023-05-08T18:28:41.867Z,9.99
2023-05-08T18:31:08.697Z,9.97
2023-05-08T18:33:37.271Z,9.91
2023-05-08T18:36:05.598Z,9.84
2023-05-08T18:38:33.113Z,9.77
2023-05-08T18:41:04.023Z,9.69
2023-05-08T18:43:30.939Z,9.61
2023-05-08T18:45:59.135Z,9.54
2023-05-08T18:48:26.442Z,9.47
2023-05-08T18:50:53.415Z,9.42
2023-05-08T18:53:20.300Z,9.37
2023-05-08T18:55:47.158Z,9.31
2023-05-08T18:58:13.957Z,9.26
2023-05-08T19:00:40.976Z,9.21
2023-05-08T19:03:08.036Z,9.16
2023-05-08T19:05:35.329Z,9.12
2023-05-08T19:08:02.833Z,9.07
2023-05-08T19:10:29.863Z,9.03
2023-05-08T19:12:56.888Z,9.00
2023-05-08T19:15:23.805Z,8.98
2023-05-08T19:17:52.907Z,8.97
2023-05-08T19:20:20.287Z,8.95
2023-05-08T19:22:48.695Z,8.94
2023-05-08T19:25:16.315Z,8.93
2023-05-08T19:27:43.347Z,8.91
2023-05-08T19:30:10.645Z,8.88
2023-05-08T19:32:37.723Z,8.89
2023-05-08T19:35:05.173Z,8.89
2023-05-08T19:37:32.248Z,8.90
2023-05-08T19:39:59.150Z,8.92
2023-05-08T19:42:26.327Z,8.92
2023-05-08T19:44:53.262Z,8.91
2023-05-08T19:47:20.223Z,8.92
2023-05-08T19:49:47.181Z,8.93
2023-05-08T19:52:14.059Z,8.93
2023-05-08T19:54:40.824Z,8.94
2023-05-08T19:57:07.794Z,8.93
2023-05-08T19:59:35.044Z,8.91
2023-05-08T20:02:01.933Z,8.91
2023-05-08T20:04:29.021Z,8.90
2023-05-08T20:06:55.914Z,8.89
2023-05-08T20:09:22.759Z,8.89
2023-05-08T20:11:50.001Z,8.89
2023-05-08T20:14:16.903Z,8.90
2023-05-08T20:16:43.969Z,8.92
2023-05-08T20:19:11.082Z,8.94
2023-05-08T20:21:37.932Z,8.96
2023-05-08T20:24:05.131Z,8.98
2023-05-08T20:26:32.530Z,9.00
2023-05-08T20:28:59.897Z,9.01
2023-05-08T20:31:27.884Z,9.03
2023-05-08T20:33:54.846Z,9.06
2023-05-08T20:36:21.663Z,9.10
2023-05-08T20:38:48.506Z,9.10
2023-05-08T20:41:15.380Z,9.12
2023-05-08T20:43:42.246Z,9.13
2023-05-08T20:46:10.144Z,9.12
2023-05-08T20:48:38.476Z,9.10
2023-05-08T20:51:05.582Z,9.08
2023-05-08T20:53:33.159Z,9.09
2023-05-08T20:56:02.163Z,9.10
2023-05-08T20:58:29.179Z,9.12
2023-05-08T21:00:56.290Z,9.13
2023-05-08T21:03:23.344Z,9.12
2023-05-08T21:05:50.327Z,9.11
2023-05-08T21:08:17.612Z,9.11
2023-05-08T21:10:44.513Z,9.10
2023-05-08T21:13:11.694Z,9.08
2023-05-08T21:15:38.705Z,9.07
2023-05-08T21:18:05.926Z,9.06
2023-05-08T21:20:34.695Z,9.07
2023-05-08T21:23:01.585Z,9.06
2023-05-08T21:25:28.566Z,9.04
2023-05-08T21:27:55.551Z,9.03
2023-05-08T21:30:22.413Z,9.04
2023-05-08T21:32:49.338Z,9.05
2023-05-08T21:35:16.379Z,9.08
2023-05-08T21:37:43.517Z,9.10
2023-05-08T21:40:10.515Z,9.12
2023-05-08T21:42:37.285Z,9.12
2023-05-08T21:45:04.536Z,9.11
2023-05-08T21:47:31.447Z,9.10
2023-05-08T21:49:58.329Z,9.10
2023-05-08T21:52:26.222Z,9.10
2023-05-08T21:54:53.058Z,9.10
2023-05-08T21:57:19.960Z,9.10
2023-05-08T21:59:47.010Z,9.11
2023-05-08T22:02:13.918Z,9.07
2023-05-08T22:04:40.801Z,9.05
2023-05-08T22:07:07.664Z,9.04
2023-05-08T22:09:34.623Z,9.05
2023-05-08T22:12:01.395Z,9.03
2023-05-08T22:14:28.309Z,9.01
2023-05-08T22:16:55.212Z,9.01
2023-05-08T22:19:22.263Z,9.00
2023-05-08T22:21:49.219Z,9.00
2023-05-08T22:24:16.109Z,9.00
2023-05-08T22:26:42.955Z,9.03
2023-05-08T22:29:10.161Z,9.04
2023-05-08T22:31:36.941Z,9.04
2023-05-08T22:34:04.350Z,9.05
2023-05-08T22:36:31.112Z,9.07
2023-05-08T22:38:58.039Z,9.07
2023-05-08T22:41:24.929Z,9.05
2023-05-08T22:43:51.831Z,9.04
2023-05-08T22:46:18.757Z,9.02
2023-05-08T22:48:45.930Z,9.00
2023-05-08T22:51:13.443Z,9.00
2023-05-08T22:53:40.215Z,8.97
2023-05-08T22:56:07.034Z,8.94
2023-05-08T22:58:33.753Z,8.90
2023-05-08T23:01:00.622Z,8.86
2023-05-08T23:03:27.656Z,8.85
2023-05-08T23:05:54.566Z,8.84
2023-05-08T23:08:22.612Z,8.82
2023-05-08T23:10:49.524Z,8.79
2023-05-08T23:13:16.325Z,8.74
2023-05-08T23:15:43.132Z,8.70
2023-05-08T23:18:10.024Z,8.65
2023-05-08T23:20:36.941Z,8.63
2023-05-08T23:23:03.704Z,8.62
2023-05-08T23:25:30.666Z,8.62
2023-05-08T23:27:57.518Z,8.61
2023-05-08T23:30:24.286Z,8.60
2023-05-08T23:32:51.447Z,8.57
2023-05-08T23:35:18.304Z,8.55
2023-05-08T23:37:45.184Z,8.54
2023-05-08T23:40:12.338Z,8.51
2023-05-08T23:42:40.011Z,8.51
2023-05-08T23:45:07.922Z,8.50
2023-05-08T23:47:34.720Z,8.50
2023-05-08T23:50:01.550Z,8.50
2023-05-08T23:52:28.885Z,8.49
2023-05-08T23:54:55.799Z,8.48
2023-05-08T23:57:23.237Z,8.45
2023-05-08T23:59:49.998Z,8.43
